createdAt,value
2022-09-30T00:01:42.636Z,3.00
2022-09-30T00:04:22.741Z,6.00
2022-09-30T00:06:53.295Z,3.00
2022-09-30T00:09:22.110Z,2.00
2022-09-30T00:11:49.975Z,4.00
2022-09-30T00:14:20.755Z,2.40
2022-09-30T00:16:48.999Z,2.60
2022-09-30T00:19:17.233Z,3.00
2022-09-30T00:21:45.051Z,3.00
2022-09-30T00:24:12.813Z,2.80
2022-09-30T00:26:40.591Z,2.00
2022-09-30T00:29:08.080Z,2.60
2022-09-30T00:31:36.586Z,2.00
2022-09-30T00:34:07.745Z,3.60
2022-09-30T00:36:43.855Z,3.00
2022-09-30T00:39:30.981Z,2.20
2022-09-30T00:42:02.354Z,2.00
2022-09-30T00:45:02.159Z,1.60
2022-09-30T00:47:41.030Z,3.40
2022-09-30T00:50:17.494Z,3.80
2022-09-30T00:52:48.961Z,3.80
2022-09-30T00:55:35.071Z,2.20
2022-09-30T00:58:06.088Z,3.00
2022-09-30T01:00:33.860Z,2.20
2022-09-30T01:03:04.274Z,3.00
2022-09-30T01:05:34.855Z,2.80
2022-09-30T01:08:05.615Z,4.80
2022-09-30T01:10:33.325Z,3.00
2022-09-30T01:13:01.405Z,2.00
2022-09-30T01:15:57.858Z,3.40
2022-09-30T01:18:42.273Z,3.60
2022-09-30T01:21:21.817Z,3.00
2022-09-30T01:24:21.016Z,3.60
2022-09-30T01:27:24.842Z,2.20
2022-09-30T01:30:29.949Z,3.20
2022-09-30T01:33:04.336Z,4.00
2022-09-30T01:35:43.102Z,5.80
2022-09-30T01:38:31.204Z,4.00
2022-09-30T01:41:15.839Z,7.80
2022-09-30T01:43:47.998Z,3.00
2022-09-30T01:46:27.546Z,3.80
2022-09-30T01:48:55.351Z,3.20
2022-09-30T01:51:44.273Z,4.20
2022-09-30T01:54:24.030Z,3.80
2022-09-30T01:57:21.055Z,2.80
2022-09-30T02:00:10.388Z,3.20
2022-09-30T02:02:47.312Z,1.40
2022-09-30T02:05:42.305Z,2.40
2022-09-30T02:08:21.787Z,3.20
2022-09-30T02:11:16.458Z,3.20
2022-09-30T02:14:25.160Z,3.00
2022-09-30T02:17:05.655Z,4.00
2022-09-30T02:19:57.564Z,4.20
2022-09-30T02:22:45.960Z,3.00
2022-09-30T02:25:19.241Z,4.00
2022-09-30T02:27:55.337Z,3.00
2022-09-30T02:30:23.154Z,3.00
2022-09-30T02:33:13.203Z,1.40
2022-09-30T02:35:57.960Z,3.00
2022-09-30T02:38:30.055Z,2.00
2022-09-30T02:41:06.520Z,3.80
2022-09-30T02:43:34.902Z,3.00
2022-09-30T02:46:19.591Z,3.20
2022-09-30T02:48:59.915Z,3.00
2022-09-30T02:51:35.919Z,2.00
2022-09-30T02:54:08.121Z,4.00
2022-09-30T02:56:56.988Z,1.80
2022-09-30T02:59:26.729Z,3.00
2022-09-30T03:01:54.620Z,2.20
2022-09-30T03:04:35.450Z,3.00
2022-09-30T03:07:03.602Z,4.40
2022-09-30T03:09:31.130Z,1.80
2022-09-30T03:12:33.368Z,1.00
2022-09-30T03:15:28.248Z,4.60
2022-09-30T03:18:19.115Z,2.20
2022-09-30T03:20:58.169Z,5.20
2022-09-30T03:23:56.489Z,4.80
2022-09-30T03:26:38.514Z,1.00
2022-09-30T03:29:46.982Z,4.00
2022-09-30T03:32:48.054Z,3.00
2022-09-30T03:35:34.167Z,3.00
2022-09-30T03:38:14.173Z,4.00
2022-09-30T03:40:52.076Z,4.00
2022-09-30T03:43:44.159Z,2.40
2022-09-30T03:46:17.126Z,4.20
2022-09-30T03:48:47.179Z,2.40
2022-09-30T03:51:17.001Z,1.60
2022-09-30T03:53:46.953Z,3.20
2022-09-30T03:56:15.149Z,2.60
2022-09-30T03:58:44.686Z,4.00
2022-09-30T04:01:21.732Z,5.20
2022-09-30T04:03:52.620Z,3.80
2022-09-30T04:06:22.263Z,3.20
2022-09-30T04:08:50.683Z,4.20
2022-09-30T04:11:18.382Z,0.20
2022-09-30T04:13:45.901Z,3.20
2022-09-30T04:16:13.411Z,6.80
2022-09-30T04:18:41.310Z,2.40
2022-09-30T04:21:10.872Z,2.00
2022-09-30T04:23:40.249Z,2.00
2022-09-30T04:26:11.619Z,2.80
2022-09-30T04:28:39.441Z,3.00
2022-09-30T04:31:08.003Z,2.00
2022-09-30T04:33:36.504Z,4.00
2022-09-30T04:36:05.176Z,3.00
2022-09-30T04:38:33.332Z,2.80
2022-09-30T04:41:06.430Z,1.00
2022-09-30T04:43:35.279Z,2.00
2022-09-30T04:46:03.619Z,2.20
2022-09-30T04:48:31.754Z,1.20
2022-09-30T04:51:00.990Z,2.00
2022-09-30T04:53:29.598Z,2.00
2022-09-30T04:56:01.811Z,1.00
2022-09-30T04:58:34.691Z,2.00
2022-09-30T05:01:08.829Z,1.80
2022-09-30T05:03:37.401Z,1.00
2022-09-30T05:06:06.455Z,2.00
2022-09-30T05:08:34.971Z,2.80
2022-09-30T05:11:08.794Z,1.60
2022-09-30T05:13:39.407Z,3.20
2022-09-30T05:16:08.924Z,2.20
2022-09-30T05:18:38.569Z,2.00
2022-09-30T05:21:06.637Z,2.60
2022-09-30T05:23:34.237Z,2.80
2022-09-30T05:26:02.242Z,1.80
2022-09-30T05:28:33.857Z,2.00
2022-09-30T05:31:06.547Z,2.20
2022-09-30T05:33:36.347Z,2.20
2022-09-30T05:36:07.222Z,2.00
2022-09-30T05:38:35.324Z,3.80
2022-09-30T05:41:14.661Z,1.60
2022-09-30T05:43:50.165Z,3.00
2022-09-30T05:46:20.315Z,2.00
2022-09-30T05:48:48.173Z,1.20
2022-09-30T05:51:16.257Z,3.00
2022-09-30T05:53:45.481Z,2.40
2022-09-30T05:56:13.949Z,0.60
2022-09-30T05:58:42.487Z,2.20
2022-09-30T06:01:14.130Z,1.60
2022-09-30T06:03:45.951Z,1.80
2022-09-30T06:06:15.019Z,2.00
2022-09-30T06:08:43.949Z,1.00
2022-09-30T06:11:14.600Z,1.40
2022-09-30T06:13:43.696Z,0.20
2022-09-30T06:16:12.870Z,3.20
2022-09-30T06:18:41.919Z,0.00
2022-09-30T06:21:12.827Z,2.00
2022-09-30T06:23:41.732Z,2.00
2022-09-30T06:26:15.242Z,2.50
2022-09-30T06:28:44.224Z,2.00
2022-09-30T06:31:12.384Z,3.00
2022-09-30T06:33:40.241Z,2.00
2022-09-30T06:36:08.239Z,2.50
2022-09-30T06:38:37.566Z,3.00
2022-09-30T06:41:06.096Z,2.00
2022-09-30T06:43:39.171Z,3.25
2022-09-30T06:46:18.857Z,2.75
2022-09-30T06:49:14.576Z,2.75
2022-09-30T06:51:42.914Z,2.50
2022-09-30T06:54:11.262Z,2.00
2022-09-30T06:56:39.386Z,2.00
2022-09-30T06:59:07.568Z,1.50
2022-09-30T07:01:35.448Z,2.00
2022-09-30T07:04:08.776Z,1.25
2022-09-30T07:06:36.714Z,2.00
2022-09-30T07:09:05.439Z,1.75
2022-09-30T07:11:35.174Z,2.00
2022-09-30T07:14:04.685Z,1.00
2022-09-30T07:16:32.523Z,1.50
2022-09-30T07:19:07.485Z,2.25
2022-09-30T07:21:35.473Z,2.75
2022-09-30T07:24:03.503Z,1.25
2022-09-30T07:26:31.503Z,2.00
2022-09-30T07:29:00.399Z,1.75
2022-09-30T07:31:33.589Z,1.25
2022-09-30T07:34:07.409Z,1.25
2022-09-30T07:36:38.091Z,0.75
2022-09-30T07:39:09.372Z,0.50
2022-09-30T07:41:39.713Z,0.75
2022-09-30T07:44:12.816Z,1.00
2022-09-30T07:46:42.357Z,1.00
2022-09-30T07:49:15.543Z,1.00
2022-09-30T07:51:46.736Z,0.00
2022-09-30T07:54:18.615Z,0.60
2022-09-30T07:59:38.764Z,1.20
2022-09-30T08:02:11.490Z,2.00
2022-09-30T08:04:43.691Z,1.20
2022-09-30T08:07:13.989Z,1.60
2022-09-30T08:09:42.110Z,0.00
2022-09-30T08:12:10.116Z,1.40
2022-09-30T08:14:37.816Z,2.25
2022-09-30T08:17:05.692Z,1.00
2022-09-30T08:19:34.159Z,1.00
2022-09-30T08:24:31.541Z,1.20
2022-09-30T08:26:59.280Z,0.00
2022-09-30T08:29:53.209Z,1.00
2022-09-30T08:32:15.427Z,0.80
2022-09-30T08:34:43.399Z,1.00
2022-09-30T08:37:14.284Z,1.80
2022-09-30T08:39:43.775Z,1.20
2022-09-30T08:42:49.088Z,1.20
2022-09-30T08:45:53.628Z,1.00
2022-09-30T08:49:16.540Z,1.00
2022-09-30T08:51:48.280Z,1.00
2022-09-30T08:54:25.522Z,1.00
2022-09-30T08:56:54.083Z,0.40
2022-09-30T08:59:35.047Z,2.00
2022-09-30T09:02:49.827Z,0.00
2022-09-30T09:05:37.818Z,1.00
2022-09-30T09:08:30.385Z,0.40
2022-09-30T09:11:29.396Z,0.00
2022-09-30T09:14:19.542Z,1.00
2022-09-30T09:17:01.194Z,1.00
2022-09-30T09:19:42.974Z,1.00
2022-09-30T09:22:11.482Z,0.80
2022-09-30T09:24:50.519Z,0.80
2022-09-30T09:27:43.574Z,0.00
2022-09-30T09:30:24.200Z,1.00
2022-09-30T09:32:58.480Z,0.20
2022-09-30T09:35:35.360Z,1.00
2022-09-30T09:38:27.750Z,0.40
2022-09-30T09:41:34.148Z,0.80
2022-09-30T09:44:04.888Z,0.00
2022-09-30T09:46:45.947Z,0.00
2022-09-30T09:49:37.008Z,0.00
2022-09-30T09:52:37.521Z,0.00
2022-09-30T09:55:05.093Z,0.00
2022-09-30T09:57:32.638Z,0.00
2022-09-30T10:00:46.380Z,0.00
2022-09-30T10:03:20.872Z,0.00
2022-09-30T10:06:10.809Z,0.00
2022-09-30T10:08:52.841Z,0.00
2022-09-30T10:11:26.790Z,0.00
2022-09-30T10:13:59.962Z,0.00
2022-09-30T10:16:37.964Z,0.00
2022-09-30T10:19:25.301Z,0.00
2022-09-30T10:22:14.408Z,0.00
2022-09-30T10:24:44.458Z,0.00
2022-09-30T10:27:29.821Z,0.00
2022-09-30T10:29:57.690Z,1.00
2022-09-30T10:32:26.856Z,0.00
2022-09-30T10:35:06.444Z,0.00
2022-09-30T10:37:51.653Z,0.00
2022-09-30T10:40:23.068Z,0.00
2022-09-30T10:42:50.764Z,0.00
2022-09-30T10:45:41.725Z,0.00
2022-09-30T10:48:20.375Z,0.00
2022-09-30T10:50:53.816Z,0.00
2022-09-30T10:53:27.450Z,0.00
2022-09-30T10:55:55.260Z,0.00
2022-09-30T10:58:25.698Z,0.00
2022-09-30T11:01:33.143Z,0.00
2022-09-30T11:04:27.489Z,0.00
2022-09-30T11:07:26.321Z,0.00
2022-09-30T11:10:13.951Z,0.00
2022-09-30T11:12:56.635Z,0.00
2022-09-30T11:15:37.510Z,0.00
2022-09-30T11:18:46.350Z,0.00
2022-09-30T11:21:30.230Z,0.00
2022-09-30T11:24:04.365Z,0.00
2022-09-30T11:26:40.757Z,0.00
2022-09-30T11:29:14.236Z,0.00
2022-09-30T11:31:53.863Z,0.00
2022-09-30T11:34:33.734Z,0.00
2022-09-30T11:37:24.548Z,0.00
2022-09-30T11:40:16.861Z,0.00
2022-09-30T11:42:55.595Z,0.00
2022-09-30T11:45:41.891Z,0.00
2022-09-30T11:48:34.229Z,0.00
2022-09-30T11:51:39.969Z,0.00
2022-09-30T11:54:26.083Z,0.00
2022-09-30T11:57:12.039Z,0.00
2022-09-30T11:59:53.336Z,0.75
2022-09-30T12:02:39.048Z,0.75
2022-09-30T12:05:48.602Z,0.00
2022-09-30T12:08:57.174Z,0.50
2022-09-30T12:11:37.414Z,0.50
2022-09-30T12:14:13.662Z,0.75
2022-09-30T12:16:41.323Z,0.00
2022-09-30T12:19:25.837Z,0.00
2022-09-30T12:22:19.891Z,0.50
2022-09-30T12:24:47.281Z,0.00
2022-09-30T12:27:27.724Z,0.00
2022-09-30T12:30:23.347Z,0.25
2022-09-30T12:33:23.466Z,0.00
2022-09-30T12:36:25.295Z,0.00
2022-09-30T12:39:11.693Z,1.00
2022-09-30T12:42:08.439Z,0.00
2022-09-30T12:45:13.124Z,0.00
2022-09-30T12:47:46.087Z,0.00
2022-09-30T12:50:23.131Z,0.00
2022-09-30T12:52:51.279Z,0.00
2022-09-30T12:55:40.006Z,0.00
2022-09-30T12:58:17.536Z,0.00
2022-09-30T13:01:01.306Z,0.00
2022-09-30T13:03:29.059Z,0.00
2022-09-30T13:06:02.111Z,0.00
2022-09-30T13:08:43.682Z,0.00
2022-09-30T13:11:33.575Z,0.00
2022-09-30T13:14:15.768Z,0.00
2022-09-30T13:17:26.163Z,0.00
2022-09-30T13:19:56.162Z,0.50
2022-09-30T13:22:32.342Z,0.00
2022-09-30T13:25:05.401Z,0.00
2022-09-30T13:27:40.903Z,0.00
2022-09-30T13:30:17.353Z,0.00
2022-09-30T13:33:02.509Z,0.00
2022-09-30T13:35:49.101Z,0.00
2022-09-30T13:38:24.976Z,0.00
2022-09-30T13:41:02.644Z,0.00
2022-09-30T13:44:10.633Z,0.00
2022-09-30T13:47:01.233Z,0.00
2022-09-30T13:49:53.222Z,0.00
2022-09-30T13:52:32.901Z,0.00
2022-09-30T13:55:17.683Z,0.00
2022-09-30T13:58:04.841Z,0.00
2022-09-30T14:01:10.595Z,0.00
2022-09-30T14:03:47.338Z,0.00
2022-09-30T14:06:20.817Z,0.00
2022-09-30T14:09:00.456Z,0.00
2022-09-30T14:11:46.541Z,0.00
2022-09-30T14:14:42.323Z,0.00
2022-09-30T14:17:20.135Z,0.00
2022-09-30T14:20:09.448Z,0.00
2022-09-30T14:22:38.371Z,0.00
2022-09-30T14:25:19.563Z,0.00
2022-09-30T14:28:03.642Z,0.00
2022-09-30T14:30:41.992Z,0.00
2022-09-30T14:33:25.102Z,0.00
2022-09-30T14:35:55.453Z,0.00
2022-09-30T14:38:28.336Z,0.00
2022-09-30T14:41:08.276Z,0.00
2022-09-30T14:43:43.190Z,0.00
2022-09-30T14:46:25.352Z,0.00
2022-09-30T14:48:54.526Z,0.00
2022-09-30T14:51:23.873Z,0.00
2022-09-30T14:53:58.913Z,0.00
2022-09-30T14:56:31.136Z,0.50
2022-09-30T14:59:00.090Z,1.00
2022-09-30T15:01:35.403Z,0.00
2022-09-30T15:04:22.265Z,0.00
2022-09-30T15:06:52.572Z,0.00
2022-09-30T15:09:26.833Z,0.00
2022-09-30T15:11:54.700Z,0.00
2022-09-30T15:14:24.131Z,0.00
2022-09-30T15:16:59.366Z,0.00
2022-09-30T15:19:42.999Z,0.00
2022-09-30T15:22:13.536Z,0.00
2022-09-30T15:24:42.198Z,0.00
2022-09-30T15:27:24.316Z,0.00
2022-09-30T15:30:26.771Z,0.00
2022-09-30T15:33:03.119Z,0.00
2022-09-30T15:35:31.571Z,0.00
2022-09-30T15:38:23.715Z,0.50
2022-09-30T15:41:10.395Z,0.00
2022-09-30T15:43:52.023Z,0.00
2022-09-30T15:46:23.777Z,1.00
2022-09-30T15:48:51.303Z,0.00
2022-09-30T15:51:26.523Z,0.00
2022-09-30T15:53:54.192Z,0.00
2022-09-30T15:56:31.370Z,0.00
2022-09-30T15:59:06.351Z,0.00
2022-09-30T16:01:40.978Z,0.00
2022-09-30T16:04:15.645Z,0.00
2022-09-30T16:06:52.124Z,0.20
2022-09-30T16:09:41.434Z,0.60
2022-09-30T16:12:21.229Z,0.00
2022-09-30T16:14:56.804Z,0.00
2022-09-30T16:17:32.718Z,0.00
2022-09-30T16:20:05.711Z,0.80
2022-09-30T16:22:45.530Z,0.00
2022-09-30T16:25:29.158Z,0.00
2022-09-30T16:28:02.259Z,0.00
2022-09-30T16:30:32.531Z,0.00
2022-09-30T16:33:05.162Z,0.00
2022-09-30T16:35:33.891Z,0.00
2022-09-30T16:38:04.364Z,0.00
2022-09-30T16:40:33.592Z,0.20
2022-09-30T16:43:04.290Z,0.00
2022-09-30T16:45:35.598Z,0.00
2022-09-30T16:48:14.113Z,0.60
2022-09-30T16:51:05.554Z,0.20
2022-09-30T16:53:33.187Z,0.00
2022-09-30T16:56:01.061Z,0.00
2022-09-30T16:58:28.616Z,0.00
2022-09-30T17:00:58.101Z,0.00
2022-09-30T17:03:26.168Z,0.00
2022-09-30T17:05:54.181Z,0.00
2022-09-30T17:08:24.293Z,0.00
2022-09-30T17:10:51.753Z,0.00
2022-09-30T17:13:19.589Z,0.00
2022-09-30T17:15:52.296Z,0.00
2022-09-30T17:18:20.548Z,0.00
2022-09-30T17:20:53.261Z,0.00
2022-09-30T17:23:22.574Z,0.00
2022-09-30T17:25:50.633Z,0.00
2022-09-30T17:28:18.372Z,0.00
2022-09-30T17:30:48.399Z,0.00
2022-09-30T17:33:16.439Z,0.00
2022-09-30T17:35:44.298Z,0.00
2022-09-30T17:38:13.251Z,0.00
2022-09-30T17:40:59.586Z,0.00
2022-09-30T17:43:26.988Z,0.00
2022-09-30T17:45:59.038Z,0.00
2022-09-30T17:48:26.568Z,1.00
2022-09-30T17:50:56.568Z,0.60
2022-09-30T17:53:24.668Z,0.00
2022-09-30T17:56:11.309Z,0.40
2022-09-30T17:58:40.004Z,0.00
2022-09-30T18:01:08.629Z,0.20
2022-09-30T18:03:37.078Z,2.00
2022-09-30T18:06:05.251Z,2.20
2022-09-30T18:08:33.285Z,2.00
2022-09-30T18:11:00.686Z,2.00
2022-09-30T18:13:29.282Z,2.00
2022-09-30T18:16:02.249Z,1.00
2022-09-30T18:18:30.180Z,1.60
2022-09-30T18:20:58.024Z,3.00
2022-09-30T18:23:25.509Z,2.00
2022-09-30T18:25:56.411Z,1.00
2022-09-30T18:28:24.430Z,3.00
2022-09-30T18:30:51.810Z,2.60
2022-09-30T18:33:21.786Z,2.60
2022-09-30T18:35:51.562Z,3.00
2022-09-30T18:38:19.012Z,3.00
2022-09-30T18:40:46.372Z,1.60
2022-09-30T18:43:15.061Z,2.00
2022-09-30T18:45:46.602Z,2.00
2022-09-30T18:48:14.892Z,1.40
2022-09-30T18:50:42.331Z,4.00
2022-09-30T18:53:13.004Z,1.00
2022-09-30T18:55:44.091Z,2.20
2022-09-30T18:58:11.701Z,2.80
2022-09-30T19:00:39.368Z,2.20
2022-09-30T19:03:10.681Z,2.00
2022-09-30T19:05:38.348Z,1.00
2022-09-30T19:08:05.844Z,4.80
2022-09-30T19:10:33.523Z,0.00
2022-09-30T19:13:01.758Z,1.60
2022-09-30T19:15:29.125Z,1.00
2022-09-30T19:17:57.102Z,1.00
2022-09-30T19:20:24.582Z,1.00
2022-09-30T19:22:52.193Z,1.00
2022-09-30T19:25:20.116Z,2.00
2022-09-30T19:27:49.739Z,3.60
2022-09-30T19:30:17.380Z,2.00
2022-09-30T19:32:45.016Z,1.00
2022-09-30T19:35:14.362Z,1.20
2022-09-30T19:37:53.824Z,1.00
2022-09-30T19:40:25.310Z,2.00
2022-09-30T19:42:52.893Z,4.80
2022-09-30T19:45:23.994Z,3.40
2022-09-30T19:47:52.844Z,2.20
2022-09-30T19:50:20.644Z,3.00
2022-09-30T19:52:56.677Z,1.00
2022-09-30T19:55:26.330Z,1.00
2022-09-30T19:57:54.574Z,2.00
2022-09-30T20:00:22.234Z,1.20
2022-09-30T20:02:50.915Z,0.00
2022-09-30T20:05:18.761Z,2.00
2022-09-30T20:07:46.512Z,0.40
2022-09-30T20:10:14.561Z,1.80
2022-09-30T20:12:43.648Z,1.80
2022-09-30T20:15:30.287Z,1.40
2022-09-30T20:17:57.929Z,3.00
2022-09-30T20:20:37.646Z,0.40
2022-09-30T20:23:05.521Z,1.00
2022-09-30T20:25:35.201Z,0.60
2022-09-30T20:28:04.682Z,0.00
2022-09-30T20:30:33.513Z,0.40
2022-09-30T20:33:02.326Z,1.20
2022-09-30T20:35:30.239Z,0.20
2022-09-30T20:37:58.021Z,1.00
2022-09-30T20:40:25.576Z,2.60
2022-09-30T20:42:56.035Z,1.80
2022-09-30T20:45:28.346Z,2.00
2022-09-30T20:47:57.154Z,1.80
2022-09-30T20:50:36.740Z,2.40
2022-09-30T20:53:09.878Z,3.20
2022-09-30T20:55:40.235Z,5.20
2022-09-30T20:58:08.858Z,5.00
2022-09-30T21:00:40.011Z,3.00
2022-09-30T21:03:09.715Z,2.00
2022-09-30T21:05:37.908Z,1.00
2022-09-30T21:08:07.564Z,3.00
2022-09-30T21:10:37.599Z,1.00
2022-09-30T21:13:10.675Z,3.80
2022-09-30T21:15:39.816Z,2.00
2022-09-30T21:18:08.980Z,6.00
2022-09-30T21:20:37.240Z,4.20
2022-09-30T21:23:05.294Z,3.00
2022-09-30T21:25:33.690Z,1.00
2022-09-30T21:28:01.915Z,3.00
2022-09-30T21:30:30.271Z,2.60
2022-09-30T21:32:58.076Z,2.00
2022-09-30T21:35:26.202Z,2.00
2022-09-30T21:37:54.224Z,3.00
2022-09-30T21:40:22.075Z,3.80
2022-09-30T21:42:49.605Z,2.00
2022-09-30T21:45:18.620Z,2.60
2022-09-30T21:47:46.393Z,3.40
2022-09-30T21:50:13.934Z,2.60
2022-09-30T21:52:41.734Z,2.00
2022-09-30T21:55:09.677Z,2.20
2022-09-30T21:57:37.717Z,3.40
2022-09-30T22:00:05.558Z,3.00
2022-09-30T22:02:41.374Z,2.00
2022-09-30T22:05:10.193Z,2.00
2022-09-30T22:07:39.082Z,1.60
2022-09-30T22:10:09.431Z,4.40
2022-09-30T22:12:37.109Z,3.00
2022-09-30T22:15:05.194Z,2.00
2022-09-30T22:17:32.912Z,3.40
2022-09-30T22:20:01.322Z,2.00
2022-09-30T22:22:29.012Z,3.00
2022-09-30T22:24:57.272Z,3.00
2022-09-30T22:27:25.136Z,3.00
2022-09-30T22:29:52.781Z,3.00
2022-09-30T22:32:20.342Z,2.20
2022-09-30T22:35:06.619Z,3.00
2022-09-30T22:37:52.941Z,6.00
2022-09-30T22:40:20.649Z,1.80
2022-09-30T22:42:49.125Z,3.40
2022-09-30T22:45:16.734Z,4.20
2022-09-30T22:47:44.368Z,4.20
2022-09-30T22:50:11.980Z,6.60
2022-09-30T22:52:39.470Z,2.40
2022-09-30T22:55:07.428Z,3.40
2022-09-30T22:57:35.131Z,6.00
2022-09-30T23:00:03.521Z,4.60
2022-09-30T23:02:31.618Z,3.60
2022-09-30T23:05:02.257Z,3.80
2022-09-30T23:07:30.324Z,3.40
2022-09-30T23:09:57.830Z,3.40
2022-09-30T23:12:25.492Z,4.00
2022-09-30T23:14:54.211Z,2.40
2022-09-30T23:17:21.742Z,3.40
2022-09-30T23:19:49.481Z,5.80
2022-09-30T23:22:18.871Z,2.20
2022-09-30T23:24:46.715Z,3.80
2022-09-30T23:27:14.440Z,3.00
2022-09-30T23:29:41.929Z,6.60
2022-09-30T23:32:09.600Z,3.80
2022-09-30T23:34:37.636Z,2.80
2022-09-30T23:37:05.149Z,2.20
2022-09-30T23:39:32.851Z,4.40
2022-09-30T23:42:00.368Z,3.00
2022-09-30T23:44:28.831Z,5.80
2022-09-30T23:47:14.958Z,4.20
2022-09-30T23:49:43.537Z,1.20
2022-09-30T23:52:13.294Z,3.40
2022-09-30T23:54:42.764Z,5.60
2022-09-30T23:57:11.186Z,2.20
2022-09-30T23:59:39.062Z,4.20
